Dallas, TX (75201)

9:10 AM CDT on April 28, 2017 (GMT -0500)
Uptown | | Change Station

Elev 452 ft 32.79 °N, 96.81 °W | Updated 10 minutes ago

Overcast
Overcast
71.6 °F
Feels Like 72 °F
N
0.6
Wind Variable Wind from SSE

Today
High -- | Low -- °F
--% Chance of Precip.
Yesterday
High -- | Low -- °F
Precip. -- in
Pressure 29.60 in
Visibility 10.0 miles
Clouds Overcast 2000 ft
Heat Index 72 °F
Dew Point 64 °F
Humidity 80%
Rainfall Not available.
Snow Depth Not available.
6:42 AM 8:07 PM
Waxing Crescent, 6% visible
METAR KDAL 281353Z 21006KT 10SM OVC020 23/18 A2962 RMK AO2 SLP024 T02280178
Pressure 29.60 in
Visibility 10.0 miles
Clouds Overcast 2000 ft
Heat Index 72 °F
Dew Point 64 °F
Humidity 80%
Rainfall Not available.
Snow Depth Not available.
6:42 AM 8:07 PM
Waxing Crescent, 6% visible
METAR KDAL 281353Z 21006KT 10SM OVC020 23/18 A2962 RMK AO2 SLP024 T02280178

Get Severe Weather Alerts

Thanks for signing up!

Be on the lookout for a verification email in your inbox.

You'll start receiving the daily forecast at 8 AM.

×

10-Day Weather Forecast

Almanac

Astronomy

Apr. 28, 2017 Rise Set
Actual Time
Civil Twilight
Nautical Twilight
Astronomical Twilight
Moon
Length of Visible Light
Length of Day
Tomorrow will be .
, % of the Moon is Illuminated

Today's Extremes

State Highs State Lows

Community

WunderPhotos

WunderBlog® & News

Nearby

Air Quality

  Air Quality AQ Index Pollutant
Not available.

Snow Depth

Station Depth Elevation

Earthquake Activity

City Distance Mag. Time & Date
Minimum magnitude displayed is 2.5.

Coastal Water Temperatures

Place Temperature

Stations

Nearby Weather Stations

Station Location Temp. Windchill Dew Point Humidity Wind Precip. Elev Updated Type
                   

Watches & Warnings

There are currently no watches in effect.